createdAt,value
2019-04-04T00:03:35.548Z,98736.54
2019-04-04T00:08:40.981Z,98738.96
2019-04-04T00:13:45.556Z,98738.16
2019-04-04T00:18:50.087Z,98745.38
2019-04-04T00:23:54.844Z,98745.80
2019-04-04T00:29:01.343Z,98742.35
2019-04-04T00:34:05.808Z,98733.67
2019-04-04T00:39:10.375Z,98734.46
2019-04-04T00:44:15.086Z,98721.53
2019-04-04T00:49:19.648Z,98728.30
2019-04-04T00:54:25.145Z,98727.19
2019-04-04T00:59:29.659Z,98718.35
2019-04-04T01:04:34.219Z,98709.30
2019-04-04T01:09:39.723Z,98700.33
2019-04-04T01:14:44.419Z,98700.68
2019-04-04T01:19:49.794Z,98695.70
2019-04-04T01:24:54.591Z,98693.91
2019-04-04T01:29:59.199Z,98687.39
2019-04-04T01:35:04.994Z,98689.61
2019-04-04T01:40:09.545Z,98689.46
2019-04-04T01:45:14.344Z,98684.90
2019-04-04T01:50:18.935Z,98682.58
2019-04-04T01:55:23.441Z,98678.31
2019-04-04T02:00:27.873Z,98681.25
2019-04-04T02:05:32.327Z,98677.03
2019-04-04T02:10:36.844Z,98682.35
2019-04-04T02:15:42.847Z,98676.80
2019-04-04T02:20:47.560Z,98665.75
2019-04-04T02:25:51.998Z,98663.72
2019-04-04T02:30:56.520Z,98651.48
2019-04-04T02:36:02.393Z,98661.72
2019-04-04T02:41:09.050Z,98667.61
2019-04-04T02:46:13.560Z,98660.63
2019-04-04T02:51:18.403Z,98660.06
2019-04-04T02:56:22.923Z,98649.78
2019-04-04T03:01:31.630Z,98643.20
2019-04-04T03:06:33.750Z,98642.27
2019-04-04T03:11:40.432Z,98639.18
2019-04-04T03:16:45.085Z,98647.84
2019-04-04T03:21:54.765Z,98643.15
2019-04-04T03:26:56.730Z,98635.31
2019-04-04T03:32:01.164Z,98643.13
2019-04-04T03:37:06.579Z,98635.06
2019-04-04T03:42:11.888Z,98623.67
2019-04-04T03:47:16.371Z,98623.67
2019-04-04T03:52:20.866Z,98618.03
2019-04-04T03:57:25.741Z,98623.67
2019-04-04T04:02:30.169Z,98615.81
2019-04-04T04:07:34.733Z,98624.34
2019-04-04T04:12:42.690Z,98633.75
2019-04-04T04:17:46.549Z,98626.31
2019-04-04T04:22:52.353Z,98626.48
2019-04-04T04:27:56.958Z,98628.34
2019-04-04T04:33:01.509Z,98611.29
2019-04-04T04:38:05.979Z,98613.84
2019-04-04T04:43:10.433Z,98615.89
2019-04-04T04:48:14.967Z,98622.06
2019-04-04T04:53:19.696Z,98618.59
2019-04-04T04:58:24.080Z,98616.39
2019-04-04T05:03:28.698Z,98614.49
2019-04-04T05:08:33.208Z,98618.25
2019-04-04T05:13:37.787Z,98619.24
2019-04-04T05:18:42.512Z,98614.05
2019-04-04T05:23:47.734Z,98618.90
2019-04-04T05:28:52.271Z,98622.19
2019-04-04T05:33:58.739Z,98616.23
2019-04-04T05:39:07.680Z,98619.45
2019-04-04T05:44:14.280Z,98613.39
2019-04-04T05:49:19.781Z,98613.39
2019-04-04T05:54:24.254Z,98611.03
2019-04-04T05:59:28.733Z,98612.50
2019-04-04T06:04:33.322Z,98606.22
2019-04-04T06:09:37.806Z,98609.45
2019-04-04T06:14:42.249Z,98607.67
2019-04-04T06:19:46.734Z,98606.16
2019-04-04T06:24:52.366Z,98604.00
2019-04-04T06:29:56.889Z,98610.55
2019-04-04T06:35:01.374Z,98605.55
2019-04-04T06:40:07.579Z,98593.92
2019-04-04T06:45:15.155Z,98594.12
2019-04-04T06:50:18.484Z,98596.77
2019-04-04T06:55:22.919Z,98586.13
2019-04-04T07:00:27.553Z,98589.45
2019-04-04T07:05:31.987Z,98583.93
2019-04-04T07:10:36.487Z,98582.61
2019-04-04T07:15:46.783Z,98582.22
2019-04-04T07:20:48.339Z,98573.38
2019-04-04T07:25:53.734Z,98565.03
2019-04-04T07:30:59.339Z,98558.80
2019-04-04T07:36:04.329Z,98565.12
2019-04-04T07:41:09.083Z,98565.12
2019-04-04T07:46:16.858Z,98556.55
2019-04-04T07:51:20.037Z,98559.70
2019-04-04T07:56:24.591Z,98547.03
2019-04-04T08:01:29.236Z,98550.77
2019-04-04T08:06:33.692Z,98541.20
2019-04-04T08:11:38.234Z,98557.66
2019-04-04T08:16:42.725Z,98549.92
2019-04-04T08:21:47.289Z,98527.27
2019-04-04T08:26:51.997Z,98529.18
2019-04-04T08:31:56.559Z,98541.34
2019-04-04T08:37:01.058Z,98535.93
2019-04-04T08:42:05.753Z,98531.41
2019-04-04T08:47:10.258Z,98536.38
2019-04-04T08:52:16.853Z,98536.80
2019-04-04T08:57:21.883Z,98532.48
2019-04-04T09:02:26.481Z,98529.56
2019-04-04T09:07:30.912Z,98536.09
2019-04-04T09:12:35.567Z,98537.50
2019-04-04T09:17:40.008Z,98530.19
2019-04-04T09:22:44.507Z,98525.39
2019-04-04T09:27:49.148Z,98528.19
2019-04-04T09:32:53.572Z,98526.23
2019-04-04T09:37:58.045Z,98514.27
2019-04-04T09:43:02.525Z,98514.39
2019-04-04T09:48:07.095Z,98511.91
2019-04-04T09:53:12.567Z,98510.65
2019-04-04T09:58:17.114Z,98519.25
2019-04-04T10:03:21.603Z,98520.14
2019-04-04T10:08:26.131Z,98511.82
2019-04-04T10:13:30.562Z,98510.55
2019-04-04T10:18:35.094Z,98508.95
2019-04-04T10:23:39.766Z,98490.35
2019-04-04T10:28:44.354Z,98489.39
2019-04-04T10:33:49.069Z,98496.28
2019-04-04T10:38:55.615Z,98472.52
2019-04-04T10:44:00.078Z,98482.59
2019-04-04T10:49:04.629Z,98474.66
2019-04-04T10:54:09.052Z,98482.28
2019-04-04T10:59:13.556Z,98467.73
2019-04-04T11:04:18.034Z,98462.56
2019-04-04T11:09:22.562Z,98457.97
2019-04-04T11:14:27.019Z,98470.90
2019-04-04T11:19:31.682Z,98463.51
2019-04-04T11:24:36.166Z,98469.53
2019-04-04T11:29:40.710Z,98458.84
2019-04-04T11:34:52.974Z,98464.70
2019-04-04T11:39:54.926Z,98450.08
2019-04-04T11:44:57.684Z,98447.08
2019-04-04T11:50:03.633Z,98436.30
2019-04-04T11:55:08.510Z,98435.34
2019-04-04T12:00:15.242Z,98409.86
2019-04-04T12:05:20.309Z,98421.25
2019-04-04T12:10:25.005Z,98431.92
2019-04-04T12:15:29.522Z,98440.32
2019-04-04T12:20:35.255Z,98392.80
2019-04-04T12:25:39.681Z,98422.92
2019-04-04T12:30:44.101Z,98408.91
2019-04-04T12:35:48.784Z,98419.98
2019-04-04T12:40:53.218Z,98404.05
2019-04-04T12:45:59.727Z,98410.69
2019-04-04T12:51:04.147Z,98399.22
2019-04-04T12:56:08.648Z,98403.20
2019-04-04T13:01:13.277Z,98405.71
2019-04-04T13:06:17.890Z,98397.36
2019-04-04T13:11:22.413Z,98404.57
2019-04-04T13:16:27.174Z,98381.73
2019-04-04T13:21:31.783Z,98386.20
2019-04-04T13:26:36.248Z,98371.40
2019-04-04T13:31:40.808Z,98375.90
2019-04-04T13:36:45.377Z,98385.64
2019-04-04T13:41:50.055Z,98375.20
2019-04-04T13:46:54.644Z,98394.63
2019-04-04T13:51:59.237Z,98376.41
2019-04-04T13:57:03.783Z,98369.98
2019-04-04T14:02:08.301Z,98371.52
2019-04-04T14:07:12.846Z,98363.45
2019-04-04T14:12:17.284Z,98381.50
2019-04-04T14:17:21.742Z,98375.38
2019-04-04T14:22:26.305Z,98363.54
2019-04-04T14:27:30.801Z,98362.96
2019-04-04T14:32:35.451Z,98355.52
2019-04-04T14:37:39.909Z,98361.03
2019-04-04T14:42:44.405Z,98363.09
2019-04-04T14:47:48.888Z,98366.47
2019-04-04T14:52:53.370Z,98365.53
2019-04-04T14:57:58.065Z,98358.50
2019-04-04T15:03:02.605Z,98356.05
2019-04-04T15:08:07.200Z,98354.19
2019-04-04T15:13:11.753Z,98360.21
2019-04-04T15:18:16.207Z,98351.41
2019-04-04T15:23:20.826Z,98356.80
2019-04-04T15:28:26.189Z,98360.44
2019-04-04T15:33:30.974Z,98373.41
2019-04-04T15:38:35.471Z,98375.83
2019-04-04T15:43:39.969Z,98374.99
2019-04-04T15:48:44.618Z,98376.41
2019-04-04T15:53:49.052Z,98376.78
2019-04-04T15:58:53.495Z,98393.16
2019-04-04T16:03:57.965Z,98402.20
2019-04-04T16:09:03.819Z,98405.84
2019-04-04T16:14:08.852Z,98407.64
2019-04-04T16:19:13.371Z,98410.00
2019-04-04T16:24:17.926Z,98407.59
2019-04-04T16:29:22.438Z,98412.96
2019-04-04T16:34:27.017Z,98417.34
2019-04-04T16:39:31.530Z,98422.23
2019-04-04T16:44:36.080Z,98434.20
2019-04-04T16:49:40.549Z,98436.99
2019-04-04T16:54:45.005Z,98441.93
2019-04-04T16:59:50.572Z,98442.11
2019-04-04T17:04:55.065Z,98445.94
2019-04-04T17:09:59.605Z,98456.61
2019-04-04T17:15:06.582Z,98461.23
2019-04-04T17:20:12.111Z,98461.48
2019-04-04T17:25:16.879Z,98463.33
2019-04-04T17:30:22.124Z,98468.77
2019-04-04T17:35:26.827Z,98474.31
2019-04-04T17:40:31.268Z,98481.97
2019-04-04T17:45:35.840Z,98483.29
2019-04-04T17:50:40.369Z,98490.92
2019-04-04T17:55:47.766Z,98489.97
2019-04-04T18:00:51.554Z,98499.66
2019-04-04T18:05:56.128Z,98506.40
2019-04-04T18:11:00.772Z,98518.08
2019-04-04T18:16:05.393Z,98518.08
2019-04-04T18:21:11.161Z,98524.39
2019-04-04T18:26:15.601Z,98526.16
2019-04-04T18:31:20.231Z,98521.09
2019-04-04T18:36:24.816Z,98533.46
2019-04-04T18:41:30.268Z,98540.48
2019-04-04T18:46:35.726Z,98541.60
2019-04-04T18:51:41.398Z,98542.88
2019-04-04T18:56:45.832Z,98551.23
2019-04-04T19:01:50.450Z,98558.67
2019-04-04T19:06:55.152Z,98560.14
2019-04-04T19:11:59.717Z,98559.36
2019-04-04T19:17:04.465Z,98555.31
2019-04-04T19:22:09.205Z,98567.51
2019-04-04T19:27:14.145Z,98567.61
2019-04-04T19:32:18.851Z,98576.69
2019-04-04T19:37:23.518Z,98574.51
2019-04-04T19:42:29.046Z,98581.48
2019-04-04T19:47:33.749Z,98583.42
2019-04-04T19:52:38.558Z,98585.15
2019-04-04T19:57:42.997Z,98583.80
2019-04-04T20:02:48.567Z,98592.31
2019-04-04T20:07:53.122Z,98601.25
2019-04-04T20:12:57.691Z,98604.92
2019-04-04T20:18:03.214Z,98594.48
2019-04-04T20:23:07.814Z,98594.48
2019-04-04T20:28:12.523Z,98606.11
2019-04-04T20:33:17.224Z,98607.22
2019-04-04T20:38:21.812Z,98615.25
2019-04-04T20:43:26.409Z,98616.94
2019-04-04T20:48:30.997Z,98631.95
2019-04-04T20:53:35.518Z,98631.95
2019-04-04T20:58:41.147Z,98628.74
2019-04-04T21:03:45.635Z,98634.73
2019-04-04T21:08:50.271Z,98641.28
2019-04-04T21:13:56.514Z,98643.45
2019-04-04T21:19:00.871Z,98643.13
2019-04-04T21:24:05.797Z,98650.52
2019-04-04T21:29:10.245Z,98644.02
2019-04-04T21:34:17.120Z,98653.33
2019-04-04T21:39:21.048Z,98644.15
2019-04-04T21:44:25.588Z,98659.16
2019-04-04T21:49:30.106Z,98664.48
2019-04-04T21:54:36.722Z,98670.27
2019-04-04T21:59:41.400Z,98672.20
2019-04-04T22:04:45.914Z,98668.81
2019-04-04T22:09:50.749Z,98673.77
2019-04-04T22:14:55.273Z,98672.33
2019-04-04T22:19:59.993Z,98675.70
2019-04-04T22:25:06.709Z,98668.69
2019-04-04T22:30:11.626Z,98670.52
2019-04-04T22:35:16.278Z,98673.14
2019-04-04T22:40:21.771Z,98673.27
2019-04-04T22:45:26.257Z,98669.88
2019-04-04T22:50:30.801Z,98676.98
2019-04-04T22:55:35.371Z,98677.95
2019-04-04T23:00:39.796Z,98678.53
2019-04-04T23:05:44.334Z,98687.80
2019-04-04T23:10:49.845Z,98690.87
2019-04-04T23:15:54.451Z,98682.37
2019-04-04T23:20:58.903Z,98681.57
2019-04-04T23:26:03.516Z,98680.53
2019-04-04T23:31:08.184Z,98681.09
2019-04-04T23:36:12.645Z,98679.35
2019-04-04T23:41:18.236Z,98680.83
2019-04-04T23:46:22.707Z,98676.36
2019-04-04T23:51:27.293Z,98674.22
2019-04-04T23:56:31.911Z,98677.50
